Time;durP1;ratioP1;P1;durP2;ratioP2;P2;SDS_P1;SDS_P2;PMS_P1;PMS_P2;Temp;Humidity;BMP_temperature;BMP_pressure;BME280_temperature;BME280_humidity;BME280_pressure;Samples;Min_cycle;Max_cycle;Signal;HPM_P1;HPM_P2
2023/12/27 00:01:57;;;;;;;0.70;0.60;;;;;;;15.05;54.64;97382.13;105661;1254;72326;-39
2023/12/27 00:04:24;;;;;;;0.50;0.50;;;;;;;15.05;54.66;97385.90;105644;1255;60445;-39
2023/12/27 00:06:52;;;;;;;0.50;0.50;;;;;;;15.05;54.51;97392.54;105581;1254;60498;-39
2023/12/27 00:09:20;;;;;;;0.60;0.60;;;;;;;15.05;54.57;97394.39;105504;1253;72391;-39
2023/12/27 00:11:48;;;;;;;0.90;0.60;;;;;;;15.05;54.74;97400.55;105582;1257;65962;-39
2023/12/27 00:14:15;;;;;;;1.20;0.70;;;;;;;15.05;54.69;97402.80;105486;1253;72374;-39
2023/12/27 00:16:42;;;;;;;0.40;0.40;;;;;;;15.05;54.68;97404.33;105609;1258;60611;-39
2023/12/27 00:19:09;;;;;;;1.10;0.70;;;;;;;15.05;54.56;97408.04;105938;1251;60558;-39
2023/12/27 00:21:37;;;;;;;1.00;0.60;;;;;;;15.06;54.69;97413.68;105859;1257;73788;-39
2023/12/27 00:24:05;;;;;;;0.80;0.40;;;;;;;15.06;54.65;97418.92;105658;1255;65804;-39
2023/12/27 00:26:32;;;;;;;0.60;0.60;;;;;;;15.06;54.58;97422.00;105572;1256;71046;-39
2023/12/27 00:29:00;;;;;;;0.60;0.60;;;;;;;15.06;54.68;97424.25;105762;1254;60415;-39
2023/12/27 00:31:28;;;;;;;0.80;0.60;;;;;;;15.06;54.55;97426.63;105731;1256;60424;-39
2023/12/27 00:33:55;;;;;;;0.50;0.50;;;;;;;15.06;54.59;97429.71;105684;1255;73783;-38
2023/12/27 00:36:29;;;;;;;0.80;0.60;;;;;;;15.06;54.70;97430.58;105607;1256;65012;-39
2023/12/27 00:38:59;;;;;;;0.60;0.40;;;;;;;15.06;54.62;97430.48;105487;1254;72621;-38
2023/12/27 00:41:27;;;;;;;0.60;0.60;;;;;;;15.06;54.53;97430.56;105660;1256;60409;-37
2023/12/27 00:43:55;;;;;;;0.60;0.60;;;;;;;15.06;54.58;97430.79;105560;1251;60521;-38
2023/12/27 00:46:23;;;;;;;0.80;0.60;;;;;;;15.05;54.52;97430.53;105699;1253;73780;-39
2023/12/27 00:48:50;;;;;;;0.60;0.50;;;;;;;15.06;54.60;97432.63;105748;1257;66088;-38
2023/12/27 00:51:21;;;;;;;0.50;0.40;;;;;;;15.05;54.62;97431.52;105928;1256;72475;-39
2023/12/27 00:53:49;;;;;;;0.50;0.50;;;;;;;15.05;54.50;97428.20;105865;1257;60537;-39
2023/12/27 00:56:16;;;;;;;0.60;0.50;;;;;;;15.04;54.61;97434.52;105948;1251;60591;-38
2023/12/27 00:58:43;;;;;;;0.60;0.60;;;;;;;15.04;54.52;97436.58;105794;1254;73792;-39
2023/12/27 01:01:11;;;;;;;0.80;0.50;;;;;;;15.04;54.56;97441.44;105697;1255;66126;-39
2023/12/27 01:03:40;;;;;;;0.50;0.50;;;;;;;15.03;54.52;97438.40;105877;1256;72325;-38
2023/12/27 01:06:09;;;;;;;0.60;0.50;;;;;;;15.03;54.66;97445.56;105653;1254;60390;-38
2023/12/27 01:08:37;;;;;;;0.60;0.50;;;;;;;15.02;54.54;97440.54;105667;1257;60408;-38
2023/12/27 01:11:04;;;;;;;0.40;0.40;;;;;;;15.02;54.55;97440.77;105825;1256;73869;-38
2023/12/27 01:13:32;;;;;;;0.50;0.40;;;;;;;15.01;54.59;97438.42;105949;1256;66249;-38
2023/12/27 01:16:00;;;;;;;0.50;0.40;;;;;;;15.01;54.64;97435.46;105743;1251;72686;-38
2023/12/27 01:18:27;;;;;;;0.50;0.50;;;;;;;15.01;54.44;97435.69;105605;1252;60411;-39
2023/12/27 01:20:55;;;;;;;0.50;0.50;;;;;;;15.00;54.59;97434.52;105821;1253;60433;-38
2023/12/27 01:23:22;;;;;;;0.70;0.50;;;;;;;15.00;54.59;97436.36;105794;1253;73619;-38
2023/12/27 01:25:49;;;;;;;0.40;0.40;;;;;;;14.99;54.53;97439.20;105599;1256;65917;-39
2023/12/27 01:28:16;;;;;;;0.70;0.70;;;;;;;14.99;54.47;97439.80;105674;1255;72400;-39
2023/12/27 01:30:44;;;;;;;0.60;0.60;;;;;;;15.00;54.62;97439.13;105696;1256;60544;-39
2023/12/27 01:33:11;;;;;;;0.50;0.40;;;;;;;14.99;54.63;97440.81;105735;1252;60435;-39
2023/12/27 01:35:40;;;;;;;0.50;0.50;;;;;;;14.99;54.51;97436.95;106217;1252;74145;-38
2023/12/27 01:38:07;;;;;;;0.70;0.50;;;;;;;15.00;54.52;97442.20;105759;1256;66309;-38
2023/12/27 01:40:34;;;;;;;0.90;0.60;;;;;;;15.00;54.53;97446.53;106079;1256;72476;-39
2023/12/27 01:43:02;;;;;;;0.60;0.60;;;;;;;14.99;54.63;97444.75;105832;1257;60537;-38
2023/12/27 01:45:29;;;;;;;0.70;0.50;;;;;;;15.00;54.60;97446.67;105595;1253;60408;-39
2023/12/27 01:47:57;;;;;;;0.50;0.50;;;;;;;15.00;54.59;97451.08;105756;1254;74741;-39
2023/12/27 01:50:25;;;;;;;0.90;0.60;;;;;;;15.00;54.55;97451.77;105874;1256;65978;-38
2023/12/27 01:52:52;;;;;;;0.80;0.50;;;;;;;15.00;54.59;97455.84;105848;1251;72446;-38
2023/12/27 01:55:19;;;;;;;0.50;0.50;;;;;;;15.00;54.54;97457.70;105771;1256;60542;-38
2023/12/27 01:57:47;;;;;;;0.70;0.50;;;;;;;15.00;54.48;97464.02;105715;1256;60299;-38
2023/12/27 02:00:15;;;;;;;2.40;0.60;;;;;;;15.00;54.55;97460.95;105790;1253;73805;-40
2023/12/27 02:02:42;;;;;;;0.90;0.40;;;;;;;15.01;54.60;97462.81;105607;1257;65687;-40
2023/12/27 02:05:10;;;;;;;0.60;0.40;;;;;;;15.01;54.56;97459.73;105756;1253;71772;-38
2023/12/27 02:07:37;;;;;;;0.50;0.50;;;;;;;15.01;54.49;97462.76;105946;1255;60550;-38
2023/12/27 02:10:06;;;;;;;1.00;0.60;;;;;;;15.01;54.57;97468.52;105954;1253;60373;-38
2023/12/27 02:12:33;;;;;;;0.50;0.40;;;;;;;15.01;54.59;97472.36;105880;1251;73931;-40
2023/12/27 02:15:01;;;;;;;0.50;0.50;;;;;;;15.01;54.53;97473.70;105645;1256;65897;-40
2023/12/27 02:17:28;;;;;;;0.80;0.70;;;;;;;15.01;54.51;97476.17;105793;1253;72658;-38
2023/12/27 02:19:56;;;;;;;0.60;0.60;;;;;;;15.01;54.50;97473.64;105619;1259;60442;-38
2023/12/27 02:22:23;;;;;;;0.50;0.40;;;;;;;15.02;54.51;97472.20;105664;1253;60489;-38
2023/12/27 02:24:54;;;;;;;0.50;0.50;;;;;;;15.02;54.41;97475.13;105765;1253;73484;-38
2023/12/27 02:27:21;;;;;;;0.50;0.50;;;;;;;15.02;54.54;97473.13;105966;1256;66725;-39
2023/12/27 02:29:49;;;;;;;0.80;0.60;;;;;;;15.02;54.58;97471.44;105869;1251;72325;-38
2023/12/27 02:32:16;;;;;;;0.70;0.50;;;;;;;15.03;54.50;97466.20;105928;1256;60537;-38
2023/12/27 02:34:43;;;;;;;0.60;0.60;;;;;;;15.03;54.47;97459.35;105843;1253;60434;-39
2023/12/27 02:37:12;;;;;;;0.50;0.50;;;;;;;15.03;54.48;97458.36;105902;1255;73536;-39
2023/12/27 02:39:39;;;;;;;0.60;0.50;;;;;;;15.03;54.49;97465.20;105905;1256;65122;-39
2023/12/27 02:42:06;;;;;;;0.90;0.70;;;;;;;15.03;54.52;97465.46;105940;1255;72377;-38
2023/12/27 02:44:34;;;;;;;0.60;0.60;;;;;;;15.03;54.49;97466.44;105711;1254;60537;-39
2023/12/27 02:47:01;;;;;;;0.50;0.40;;;;;;;15.04;54.46;97471.16;105729;1254;60412;-38
2023/12/27 02:49:29;;;;;;;1.40;0.50;;;;;;;15.04;54.49;97473.80;105842;1256;72638;-39
2023/12/27 02:51:56;;;;;;;1.30;0.60;;;;;;;15.04;54.53;97468.79;105984;1256;66302;-39
2023/12/27 02:54:24;;;;;;;0.50;0.50;;;;;;;15.04;54.49;97464.16;105918;1253;72290;-39
2023/12/27 02:56:51;;;;;;;0.60;0.50;;;;;;;15.04;54.45;97470.13;105967;1256;60473;-39
2023/12/27 02:59:18;;;;;;;0.50;0.50;;;;;;;15.04;54.54;97466.03;105840;1253;60503;-37
2023/12/27 03:01:46;;;;;;;0.50;0.50;;;;;;;15.04;54.39;97467.96;105733;1251;73630;-39
2023/12/27 03:04:15;;;;;;;0.40;0.40;;;;;;;15.04;54.46;97469.89;105655;1256;66223;-38
2023/12/27 03:06:42;;;;;;;0.40;0.40;;;;;;;15.05;54.52;97469.05;105900;1253;72638;-39
2023/12/27 03:09:10;;;;;;;0.60;0.40;;;;;;;15.05;54.44;97463.98;105910;1255;60439;-39
2023/12/27 03:11:37;;;;;;;0.80;0.50;;;;;;;15.05;54.58;97461.52;105961;1255;60381;-39
2023/12/27 03:14:05;;;;;;;0.40;0.40;;;;;;;15.05;54.46;97461.59;105956;1254;73789;-38
2023/12/27 03:16:33;;;;;;;0.50;0.50;;;;;;;15.06;54.41;97468.48;105766;1256;66224;-39
2023/12/27 03:19:02;;;;;;;0.50;0.50;;;;;;;15.06;54.43;97471.79;105638;1256;73436;-38
2023/12/27 03:21:30;;;;;;;0.40;0.40;;;;;;;15.06;54.48;97470.42;105651;1253;60539;-39
2023/12/27 03:23:57;;;;;;;0.60;0.50;;;;;;;15.06;54.32;97476.04;105619;1251;60447;-38
2023/12/27 03:26:25;;;;;;;0.40;0.40;;;;;;;15.06;54.36;97482.20;105622;1256;73741;-38
2023/12/27 03:28:52;;;;;;;0.60;0.40;;;;;;;15.06;54.32;97483.80;105494;1253;66260;-38
2023/12/27 03:31:19;;;;;;;0.60;0.40;;;;;;;15.06;54.39;97484.83;105642;1252;72354;-38
2023/12/27 03:33:47;;;;;;;1.10;0.60;;;;;;;15.06;54.47;97483.59;105622;1256;60514;-39
2023/12/27 03:36:14;;;;;;;0.80;0.70;;;;;;;15.06;54.38;97480.79;105579;1253;60441;-38
2023/12/27 03:38:41;;;;;;;0.90;0.60;;;;;;;15.06;54.35;97481.34;105564;1254;73537;-39
2023/12/27 03:41:09;;;;;;;0.60;0.40;;;;;;;15.05;54.36;97476.92;105613;1256;66935;-38
2023/12/27 03:43:36;;;;;;;0.40;0.40;;;;;;;15.05;54.39;97477.14;105508;1252;72541;-38
2023/12/27 03:46:03;;;;;;;0.80;0.50;;;;;;;15.04;54.34;97481.98;105814;1256;60597;-38
2023/12/27 03:48:30;;;;;;;0.90;0.50;;;;;;;15.05;54.36;97477.59;105927;1256;60417;-39
2023/12/27 03:50:58;;;;;;;0.50;0.30;;;;;;;15.04;54.46;97481.98;105893;1251;73854;-38
2023/12/27 03:53:25;;;;;;;0.50;0.50;;;;;;;15.05;54.41;97483.09;105834;1256;66143;-38
2023/12/27 03:55:53;;;;;;;0.50;0.40;;;;;;;15.05;54.42;97484.30;105830;1251;72539;-38
2023/12/27 03:58:20;;;;;;;0.60;0.50;;;;;;;15.05;54.42;97491.47;105751;1255;60540;-40
2023/12/27 04:00:47;;;;;;;0.80;0.50;;;;;;;15.05;54.37;97491.39;105691;1251;60441;-38
2023/12/27 04:03:15;;;;;;;0.40;0.40;;;;;;;15.04;54.46;97486.75;105749;1253;73719;-38
2023/12/27 04:05:42;;;;;;;0.50;0.50;;;;;;;15.05;54.38;97481.15;105787;1256;66074;-39
2023/12/27 04:08:10;;;;;;;0.50;0.40;;;;;;;15.04;54.37;97484.84;105826;1253;72371;-38
2023/12/27 04:10:37;;;;;;;0.50;0.50;;;;;;;15.04;54.43;97483.66;106159;1256;60497;-38
2023/12/27 04:13:04;;;;;;;0.40;0.30;;;;;;;15.05;54.38;97475.98;105721;1253;60408;-38
2023/12/27 04:15:31;;;;;;;0.40;0.40;;;;;;;15.05;54.38;97477.76;106356;1251;73473;-38
2023/12/27 04:17:59;;;;;;;0.60;0.50;;;;;;;15.05;54.37;97471.66;105966;1256;65563;-38
2023/12/27 04:20:27;;;;;;;0.40;0.40;;;;;;;15.05;54.36;97473.28;105904;1251;72314;-38
2023/12/27 04:22:54;;;;;;;0.40;0.40;;;;;;;15.05;54.41;97485.72;105750;1255;60547;-39
2023/12/27 04:25:23;;;;;;;1.00;0.50;;;;;;;15.05;54.45;97491.80;105736;1251;60502;-38
2023/12/27 04:27:50;;;;;;;0.50;0.40;;;;;;;15.05;54.45;97503.52;105868;1254;73494;-39
2023/12/27 04:30:17;;;;;;;0.80;0.50;;;;;;;15.06;54.32;97509.64;105917;1256;66155;-39
2023/12/27 04:32:45;;;;;;;0.60;0.50;;;;;;;15.06;54.32;97533.27;105759;1251;72606;-39
2023/12/27 04:35:12;;;;;;;0.40;0.40;;;;;;;15.06;54.33;97564.73;105798;1257;60534;-39
2023/12/27 04:37:39;;;;;;;0.50;0.40;;;;;;;15.06;54.38;97582.52;105838;1251;60387;-39
2023/12/27 04:40:08;;;;;;;0.50;0.50;;;;;;;15.06;54.37;97573.98;105959;1252;73818;-39
2023/12/27 04:42:35;;;;;;;0.50;0.40;;;;;;;15.06;54.32;97566.19;105781;1256;65927;-39
2023/12/27 04:45:03;;;;;;;0.60;0.50;;;;;;;15.06;54.33;97547.95;105684;1257;72344;-38
2023/12/27 04:47:33;;;;;;;0.70;0.40;;;;;;;15.07;54.37;97542.64;105768;1257;60425;-40
2023/12/27 04:50:01;;;;;;;0.50;0.40;;;;;;;15.06;54.32;97540.92;105887;1253;60534;-38
2023/12/27 04:52:29;;;;;;;0.40;0.40;;;;;;;15.06;54.39;97545.02;105886;1251;73578;-39
2023/12/27 04:54:56;;;;;;;0.50;0.40;;;;;;;15.07;54.32;97555.73;105857;1256;66090;-38
2023/12/27 04:57:23;;;;;;;0.50;0.50;;;;;;;15.06;54.31;97565.42;105770;1253;72572;-38
2023/12/27 04:59:51;;;;;;;0.70;0.50;;;;;;;15.06;54.40;97567.30;105954;1256;60517;-38
2023/12/27 05:02:18;;;;;;;0.60;0.50;;;;;;;15.06;54.31;97577.92;105950;1251;60527;-38
2023/12/27 05:04:46;;;;;;;0.70;0.50;;;;;;;15.06;54.42;97586.33;105950;1252;73810;-39
2023/12/27 05:07:13;;;;;;;0.90;0.50;;;;;;;15.06;54.37;97578.69;105741;1257;66142;-38
2023/12/27 05:09:40;;;;;;;0.70;0.40;;;;;;;15.06;54.30;97570.91;105890;1255;71130;-38
2023/12/27 05:12:08;;;;;;;0.40;0.40;;;;;;;15.07;54.36;97583.41;105870;1256;60553;-38
2023/12/27 05:14:35;;;;;;;0.40;0.40;;;;;;;15.06;54.23;97578.08;105932;1251;60344;-37
2023/12/27 05:17:04;;;;;;;0.50;0.50;;;;;;;15.07;54.31;97583.40;105635;1255;73755;-39
2023/12/27 05:19:31;;;;;;;0.60;0.60;;;;;;;15.07;54.14;97587.10;105723;1255;65906;-39
2023/12/27 05:21:58;;;;;;;0.40;0.40;;;;;;;15.07;54.36;97582.33;105675;1253;72337;-39
2023/12/27 05:24:26;;;;;;;0.50;0.40;;;;;;;15.07;54.27;97584.48;105960;1256;60543;-38
2023/12/27 05:26:54;;;;;;;1.30;0.60;;;;;;;15.07;54.25;97589.58;105913;1253;60419;-38
2023/12/27 05:29:22;;;;;;;0.50;0.50;;;;;;;15.07;54.20;97597.30;105848;1254;73793;-37
2023/12/27 05:31:49;;;;;;;0.60;0.40;;;;;;;15.08;54.36;97605.33;105700;1256;65868;-38
2023/12/27 05:34:16;;;;;;;0.40;0.40;;;;;;;15.08;54.27;97612.71;105585;1254;72397;-39
2023/12/27 05:36:44;;;;;;;0.50;0.50;;;;;;;15.07;54.25;97615.79;105692;1256;60430;-38
2023/12/27 05:39:12;;;;;;;0.30;0.30;;;;;;;15.08;54.40;97622.36;105566;1253;60442;-40
2023/12/27 05:41:39;;;;;;;0.60;0.50;;;;;;;15.08;54.32;97626.73;105696;1253;73850;-38
2023/12/27 05:44:06;;;;;;;0.40;0.40;;;;;;;15.08;54.24;97634.98;105631;1256;65431;-40
2023/12/27 05:46:37;;;;;;;0.50;0.40;;;;;;;15.07;54.35;97641.91;105786;1256;73483;-39
2023/12/27 05:49:04;;;;;;;0.40;0.40;;;;;;;15.07;54.31;97646.16;105676;1256;60435;-38
2023/12/27 05:51:33;;;;;;;0.40;0.40;;;;;;;15.08;54.19;97648.48;105663;1253;60358;-39
2023/12/27 05:54:01;;;;;;;0.30;0.30;;;;;;;15.08;54.37;97640.61;105854;1257;73864;-39
2023/12/27 05:56:28;;;;;;;0.40;0.40;;;;;;;15.08;54.21;97640.80;105992;1254;65785;-39
2023/12/27 05:58:55;;;;;;;0.40;0.40;;;;;;;15.09;54.30;97643.50;105807;1253;72517;-40
2023/12/27 06:01:23;;;;;;;0.30;0.30;;;;;;;15.08;54.31;97642.80;105748;1256;60633;-39
2023/12/27 06:03:50;;;;;;;0.50;0.40;;;;;;;15.08;54.28;97643.87;105895;1253;60899;-39
2023/12/27 06:06:17;;;;;;;0.30;0.30;;;;;;;15.08;54.35;97656.83;105833;1252;73605;-39
2023/12/27 06:08:45;;;;;;;0.40;0.30;;;;;;;15.09;54.31;97661.93;105804;1256;65873;-39
2023/12/27 06:11:12;;;;;;;0.60;0.50;;;;;;;15.09;54.23;97663.23;106008;1253;72416;-39
2023/12/27 06:13:39;;;;;;;0.60;0.50;;;;;;;15.09;54.22;97669.27;105768;1256;60416;-39
2023/12/27 06:16:07;;;;;;;0.80;0.60;;;;;;;15.08;54.26;97667.40;105636;1251;60547;-39
2023/12/27 06:18:34;;;;;;;0.40;0.40;;;;;;;15.09;54.23;97677.27;105651;1251;73767;-39
2023/12/27 06:21:02;;;;;;;0.50;0.30;;;;;;;15.10;54.40;97685.55;105746;1256;66184;-38
2023/12/27 06:23:29;;;;;;;0.30;0.30;;;;;;;15.10;54.25;97691.17;105726;1253;72408;-39
2023/12/27 06:25:56;;;;;;;0.90;0.40;;;;;;;15.09;54.19;97695.92;105919;1256;60531;-39
2023/12/27 06:28:24;;;;;;;0.70;0.50;;;;;;;15.09;54.30;97704.72;105870;1253;60523;-38
2023/12/27 06:30:51;;;;;;;0.50;0.50;;;;;;;15.10;54.27;97705.27;105871;1251;73522;-38
2023/12/27 06:33:19;;;;;;;0.70;0.60;;;;;;;15.10;54.27;97714.67;105856;1256;66063;-40
2023/12/27 06:35:46;;;;;;;0.50;0.40;;;;;;;15.11;54.23;97724.63;105841;1253;71667;-40
2023/12/27 06:38:14;;;;;;;0.60;0.40;;;;;;;15.11;54.21;97729.27;105597;1255;60544;-39
2023/12/27 06:40:41;;;;;;;0.60;0.40;;;;;;;15.10;54.24;97731.70;105821;1251;60469;-39
2023/12/27 06:43:08;;;;;;;0.60;0.50;;;;;;;15.11;54.23;97737.20;105462;1254;73470;-39
2023/12/27 06:45:36;;;;;;;2.10;0.50;;;;;;;15.11;54.23;97743.06;106180;1256;66589;-39
2023/12/27 06:48:04;;;;;;;0.50;0.40;;;;;;;15.11;54.42;97748.17;105862;1251;73175;-39
2023/12/27 06:50:31;;;;;;;0.40;0.40;;;;;;;15.12;54.34;97749.89;105704;1252;61207;-39
2023/12/27 06:52:59;;;;;;;0.70;0.50;;;;;;;15.12;54.41;97757.82;105723;1253;60436;-38
2023/12/27 06:55:26;;;;;;;1.50;0.60;;;;;;;15.11;54.51;97760.48;105795;1256;73561;-41
2023/12/27 06:57:53;;;;;;;2.30;0.50;;;;;;;15.12;54.54;97773.24;105977;1256;67071;-41
2023/12/27 07:00:21;;;;;;;4.60;0.70;;;;;;;15.12;54.54;97779.40;105747;1253;71438;-39
2023/12/27 07:02:49;;;;;;;1.80;0.70;;;;;;;15.11;54.54;97785.30;105655;1255;60435;-40
2023/12/27 07:05:16;;;;;;;1.10;0.60;;;;;;;15.10;54.54;97782.73;106251;1253;60460;-40
2023/12/27 07:07:44;;;;;;;1.10;0.50;;;;;;;15.10;54.56;97793.52;105727;1251;73733;-41
2023/12/27 07:10:11;;;;;;;2.90;0.70;;;;;;;15.10;54.64;97799.30;106428;1256;177167;-41
2023/12/27 07:12:40;;;;;;;1.10;0.50;;;;;;;15.11;54.69;97804.29;105687;1253;71426;-40
2023/12/27 07:15:08;;;;;;;1.20;0.50;;;;;;;15.11;54.59;97806.28;105713;1252;60564;-38
2023/12/27 07:17:37;;;;;;;1.00;0.50;;;;;;;15.12;54.66;97813.94;105812;1253;61295;-38
2023/12/27 07:20:05;;;;;;;1.30;0.60;;;;;;;15.13;54.58;97817.82;105647;1254;74388;-38
2023/12/27 07:22:33;;;;;;;0.50;0.50;;;;;;;15.13;54.52;97819.54;105707;1257;66454;-39
2023/12/27 07:25:00;;;;;;;1.60;0.50;;;;;;;15.14;54.62;97823.89;105556;1253;72474;-39
2023/12/27 07:27:28;;;;;;;0.90;0.70;;;;;;;15.14;54.65;97825.82;105570;1252;60445;-39
2023/12/27 07:29:55;;;;;;;1.20;0.60;;;;;;;15.14;54.46;97828.14;105827;1253;60425;-39
2023/12/27 07:32:22;;;;;;;0.60;0.60;;;;;;;15.15;54.49;97833.39;105902;1253;74741;-37
2023/12/27 07:34:57;;;;;;;2.40;0.60;;;;;;;15.15;54.44;97834.26;105737;1256;65272;-39
2023/12/27 07:37:25;;;;;;;0.90;0.50;;;;;;;15.14;54.44;97842.10;105680;1252;72634;-38
2023/12/27 07:39:53;;;;;;;0.90;0.50;;;;;;;15.14;54.52;97842.33;105802;1256;60544;-39
2023/12/27 07:42:20;;;;;;;1.50;0.50;;;;;;;15.14;54.48;97844.98;107739;1255;60429;-40
2023/12/27 07:44:47;;;;;;;1.70;0.70;;;;;;;15.14;54.55;97845.91;107650;1253;73767;-40
2023/12/27 07:47:17;;;;;;;1.00;0.50;;;;;;;15.14;54.43;97850.00;105619;1256;65035;-39
2023/12/27 07:49:44;;;;;;;0.80;0.50;;;;;;;15.14;54.48;97853.39;105565;1257;70315;-39
2023/12/27 07:52:12;;;;;;;1.80;0.50;;;;;;;15.14;54.57;97854.32;105665;1257;60470;-37
2023/12/27 07:54:39;;;;;;;1.30;0.60;;;;;;;15.14;54.55;97855.80;105564;1252;60506;-40
2023/12/27 07:57:07;;;;;;;1.70;0.60;;;;;;;15.14;54.47;97856.41;105742;1253;74308;-39
2023/12/27 07:59:34;;;;;;;1.20;0.70;;;;;;;15.14;54.48;97858.95;105863;1256;64943;-40
2023/12/27 08:02:02;;;;;;;2.10;0.80;;;;;;;15.14;54.69;97857.27;105824;1251;73599;-38
2023/12/27 08:04:29;;;;;;;2.60;0.70;;;;;;;15.16;54.81;97863.80;105776;1259;60446;-38
2023/12/27 08:07:00;;;;;;;1.80;0.70;;;;;;;15.16;54.75;97883.79;105745;1254;60438;-39
2023/12/27 08:09:29;;;;;;;1.40;0.80;;;;;;;15.16;54.91;97903.92;105917;1256;74279;-38
2023/12/27 08:11:56;;;;;;;2.00;0.90;;;;;;;15.17;54.80;97916.36;105648;1256;65050;-38
2023/12/27 08:14:24;;;;;;;1.40;0.60;;;;;;;15.17;54.79;97920.99;105623;1256;73417;-39
2023/12/27 08:16:53;;;;;;;2.80;0.70;;;;;;;15.18;54.85;97936.83;105696;1256;60394;-40
2023/12/27 08:19:20;;;;;;;1.40;0.80;;;;;;;15.18;54.94;97941.23;105615;1253;60534;-38
2023/12/27 08:21:47;;;;;;;3.20;0.90;;;;;;;15.19;54.88;97947.10;105583;1253;73640;-38
2023/12/27 08:24:15;;;;;;;1.70;0.80;;;;;;;15.19;54.94;97950.66;105579;1256;65682;-40
2023/12/27 08:26:42;;;;;;;1.80;0.60;;;;;;;15.20;55.00;97953.09;105563;1253;73761;-39
2023/12/27 08:29:10;;;;;;;1.40;0.80;;;;;;;15.21;55.03;97959.67;105373;1257;60531;-38
2023/12/27 08:31:37;;;;;;;1.20;0.50;;;;;;;15.22;55.08;97965.19;105553;1256;60457;-39
2023/12/27 08:34:04;;;;;;;1.70;0.60;;;;;;;15.23;55.21;97965.85;109409;1252;73824;-40
2023/12/27 08:36:32;;;;;;;1.20;0.70;;;;;;;15.25;55.31;97970.71;105583;1251;66233;-39
2023/12/27 08:38:59;;;;;;;3.50;0.80;;;;;;;15.26;55.40;97975.87;105656;1253;72588;-40
2023/12/27 08:41:28;;;;;;;2.30;0.80;;;;;;;15.28;55.31;97985.69;105569;1255;60488;-39
2023/12/27 08:43:55;;;;;;;1.50;0.60;;;;;;;15.30;55.44;97988.50;108090;1253;60550;-40
2023/12/27 08:46:23;;;;;;;2.00;0.60;;;;;;;15.31;55.31;97991.81;105816;1253;73508;-38
2023/12/27 08:48:50;;;;;;;1.60;0.70;;;;;;;15.32;55.28;97999.00;105788;1257;65169;-39
2023/12/27 08:51:18;;;;;;;1.70;0.70;;;;;;;15.32;55.14;98000.56;105609;1253;73062;-38
2023/12/27 08:53:45;;;;;;;1.90;0.70;;;;;;;15.32;55.09;98002.12;105578;1259;60544;-39
2023/12/27 08:56:12;;;;;;;1.60;0.70;;;;;;;15.33;55.06;98005.52;105723;1253;60432;-39
2023/12/27 08:58:40;;;;;;;0.90;0.60;;;;;;;15.32;54.96;98004.65;105568;1258;73818;-39
2023/12/27 09:01:07;;;;;;;3.30;1.00;;;;;;;15.32;55.03;98005.96;105489;1257;66260;-39
2023/12/27 09:03:35;;;;;;;2.30;0.80;;;;;;;15.32;54.99;98011.10;105647;1251;73599;-38
2023/12/27 09:06:02;;;;;;;1.80;0.70;;;;;;;15.31;54.95;98013.78;105772;1256;60421;-39
2023/12/27 09:08:31;;;;;;;3.70;0.70;;;;;;;15.31;54.96;98011.79;105685;1253;60344;-41
2023/12/27 09:10:58;;;;;;;1.20;0.60;;;;;;;15.30;54.85;98011.21;105828;1251;72783;-40
2023/12/27 09:13:25;;;;;;;1.80;0.60;;;;;;;15.30;55.01;98011.86;105821;1256;66171;-38
2023/12/27 09:15:54;;;;;;;1.70;0.70;;;;;;;15.29;54.95;98009.36;105625;1253;73614;-40
2023/12/27 09:18:23;;;;;;;1.50;0.80;;;;;;;15.29;55.04;98016.37;105651;1256;60420;-38
2023/12/27 09:20:54;;;;;;;3.40;0.60;;;;;;;15.28;55.00;98014.52;105575;1259;60342;-38
2023/12/27 09:23:21;;;;;;;2.70;0.80;;;;;;;15.29;55.11;98020.53;105792;1255;74659;-39
2023/12/27 09:25:49;;;;;;;1.90;0.60;;;;;;;15.29;55.06;98025.01;105893;1256;65809;-38
2023/12/27 09:28:18;;;;;;;1.20;0.70;;;;;;;15.30;54.98;98026.86;105636;1252;72373;-39
2023/12/27 09:30:46;;;;;;;1.20;0.70;;;;;;;15.30;54.96;98024.23;105976;1256;60476;-39
2023/12/27 09:33:14;;;;;;;0.70;0.60;;;;;;;15.29;54.91;98026.34;105800;1253;60435;-40
2023/12/27 09:35:44;;;;;;;1.10;0.70;;;;;;;15.29;54.94;98032.02;105847;1258;74954;-38
2023/12/27 09:38:11;;;;;;;3.00;0.90;;;;;;;15.28;54.84;98029.84;105578;1256;65992;-39
2023/12/27 09:40:39;;;;;;;1.40;0.70;;;;;;;15.28;54.94;98028.51;105987;1253;73617;-38
2023/12/27 09:43:06;;;;;;;1.70;0.70;;;;;;;15.27;54.83;98029.65;105776;1259;60447;-39
2023/12/27 09:45:36;;;;;;;3.60;0.90;;;;;;;15.27;54.85;98039.87;106831;1256;60378;-39
2023/12/27 09:48:04;;;;;;;1.80;0.70;;;;;;;15.26;54.91;98034.54;105764;1255;73712;-39
2023/12/27 09:50:32;;;;;;;2.20;0.80;;;;;;;15.26;54.96;98045.17;106194;1257;66106;-38
2023/12/27 09:52:59;;;;;;;4.60;0.60;;;;;;;15.26;54.83;98049.11;105492;1258;71099;-38
2023/12/27 09:55:27;;;;;;;1.30;0.70;;;;;;;15.27;55.01;98054.21;106203;1256;60472;-39
2023/12/27 09:57:55;;;;;;;1.50;0.60;;;;;;;15.27;55.00;98058.78;105704;1253;60416;-38
2023/12/27 10:00:23;;;;;;;4.20;0.90;;;;;;;15.27;55.08;98058.85;105696;1252;73155;-38
2023/12/27 10:02:50;;;;;;;0.60;0.50;;;;;;;15.27;55.05;98071.80;105545;1258;67344;-39
2023/12/27 10:05:22;;;;;;;2.40;0.70;;;;;;;15.26;54.98;98076.24;105477;1253;72685;-37
2023/12/27 10:07:49;;;;;;;2.90;0.80;;;;;;;15.26;55.01;98085.24;105643;1252;61478;-38
2023/12/27 10:10:18;;;;;;;1.60;0.80;;;;;;;15.26;54.96;98079.30;105384;1253;60527;-38
2023/12/27 10:12:57;;;;;;;1.70;0.60;;;;;;;15.26;55.02;98078.61;105515;1252;74671;-37
2023/12/27 10:15:24;;;;;;;2.60;0.90;;;;;;;15.25;55.10;98079.36;105546;1258;64856;-37
2023/12/27 10:17:52;;;;;;;57.00;2.80;;;;;;;15.25;55.09;98084.77;105501;1254;72536;-38
2023/12/27 10:20:38;;;;;;;117.70;4.80;;;;;;;15.25;55.18;98086.98;105754;1256;60537;-39
2023/12/27 10:23:06;;;;;;;85.20;4.70;;;;;;;15.25;55.23;98093.52;105548;1253;60405;-37
2023/12/27 10:25:34;;;;;;;64.40;3.90;;;;;;;15.25;55.23;98098.25;106231;1254;73742;-37
2023/12/27 10:28:01;;;;;;;47.40;3.20;;;;;;;15.25;55.31;98101.18;105745;1259;66071;-37
2023/12/27 10:30:29;;;;;;;59.10;3.40;;;;;;;15.25;55.36;98103.55;106309;1256;73413;-38
2023/12/27 10:33:02;;;;;;;62.00;4.20;;;;;;;15.25;55.34;98096.77;105676;1256;60453;-38
2023/12/27 10:35:31;;;;;;;75.40;4.20;;;;;;;15.25;55.55;98104.79;106193;1254;60460;-36
2023/12/27 10:38:05;;;;;;;77.40;4.50;;;;;;;15.25;56.11;98105.88;105595;1258;74196;-38
2023/12/27 10:40:34;;;;;;;57.30;4.00;;;;;;;15.25;56.50;98111.37;106134;1253;66200;-37
2023/12/27 10:43:02;;;;;;;50.50;3.50;;;;;;;15.26;56.91;98108.06;105712;1256;72564;-37
2023/12/27 10:45:30;;;;;;;29.80;3.60;;;;;;;15.25;57.19;98097.77;106179;1255;60701;-37
2023/12/27 10:47:59;;;;;;;31.30;3.00;;;;;;;15.24;57.67;98111.45;105636;1255;60442;-36
2023/12/27 10:50:28;;;;;;;22.30;2.30;;;;;;;15.23;57.80;98111.81;105765;1252;72021;-37
2023/12/27 10:53:03;;;;;;;28.80;2.70;;;;;;;15.23;58.11;98112.20;105612;1253;67313;-39
2023/12/27 10:55:33;;;;;;;21.70;2.80;;;;;;;15.23;58.39;98113.33;106173;1258;73506;-38
2023/12/27 10:58:03;;;;;;;20.00;2.90;;;;;;;15.23;58.51;98118.41;105717;1259;60543;-38
2023/12/27 11:00:31;;;;;;;22.90;2.40;;;;;;;15.22;58.76;98118.54;105710;1259;60435;-38
2023/12/27 11:02:59;;;;;;;30.90;2.60;;;;;;;15.22;58.85;98127.22;105632;1259;74034;-37
2023/12/27 11:05:27;;;;;;;20.50;2.30;;;;;;;15.22;59.05;98132.84;106217;1260;66323;-37
2023/12/27 11:07:56;;;;;;;26.70;2.10;;;;;;;15.21;59.15;98131.42;105348;1255;71784;-37
2023/12/27 11:10:24;;;;;;;16.00;2.50;;;;;;;15.20;59.09;98138.12;105418;1253;60448;-42
2023/12/27 11:12:52;;;;;;;22.80;2.10;;;;;;;15.20;59.03;98134.62;105674;1255;60842;-37
2023/12/27 11:15:20;;;;;;;15.70;2.10;;;;;;;15.19;58.99;98136.75;105562;1253;73678;-37
2023/12/27 11:17:48;;;;;;;22.80;2.90;;;;;;;15.19;58.89;98136.60;107031;1257;66026;-38
2023/12/27 11:20:20;;;;;;;15.40;2.10;;;;;;;15.19;59.00;98137.29;105661;1253;73619;-36
2023/12/27 11:22:48;;;;;;;9.70;1.80;;;;;;;15.19;58.93;98137.29;105750;1259;61359;-38
2023/12/27 11:25:16;;;;;;;11.70;1.80;;;;;;;15.19;58.97;98135.89;105465;1253;62255;-39
2023/12/27 11:27:45;;;;;;;9.10;1.50;;;;;;;15.19;58.85;98133.42;105677;1257;73827;-38